createdAt,value
2022-08-17T00:00:49.499Z,92.12
2022-08-17T00:01:52.677Z,92.26
2022-08-17T00:02:48.383Z,92.26
2022-08-17T00:03:47.287Z,92.16
2022-08-17T00:04:50.536Z,92.26
2022-08-17T00:05:48.282Z,92.46
2022-08-17T00:06:48.632Z,92.26
2022-08-17T00:07:47.263Z,92.46
2022-08-17T00:08:47.256Z,91.96
2022-08-17T00:09:47.240Z,92.71
2022-08-17T00:10:47.231Z,93.07
2022-08-17T00:12:34.615Z,93.21
2022-08-17T00:12:48.219Z,93.21
2022-08-17T00:13:47.213Z,93.41
2022-08-17T00:14:47.205Z,93.98
2022-08-17T00:15:47.194Z,93.57
2022-08-17T00:16:53.411Z,93.68
2022-08-17T00:17:48.177Z,93.52
2022-08-17T00:19:00.918Z,93.48
2022-08-17T00:19:48.160Z,93.52
2022-08-17T00:20:47.158Z,93.62
2022-08-17T00:22:32.033Z,93.62
2022-08-17T00:22:48.210Z,93.92
2022-08-17T00:23:49.305Z,94.02
2022-08-17T00:24:47.130Z,93.52
2022-08-17T00:25:47.109Z,93.32
2022-08-17T00:26:47.128Z,93.36
2022-08-17T00:27:47.096Z,93.62
2022-08-17T00:28:47.094Z,93.05
2022-08-17T00:29:47.084Z,93.41
2022-08-17T00:30:50.995Z,93.56
2022-08-17T00:31:48.088Z,93.41
2022-08-17T00:33:14.103Z,93.52
2022-08-17T00:33:48.054Z,93.92
2022-08-17T00:34:47.040Z,93.62
2022-08-17T00:35:47.030Z,93.52
2022-08-17T00:36:47.071Z,93.56
2022-08-17T00:37:47.014Z,94.32
2022-08-17T00:38:47.010Z,94.07
2022-08-17T00:39:47.052Z,94.23
2022-08-17T00:40:46.994Z,94.53
2022-08-17T00:41:47.034Z,94.37
2022-08-17T00:42:46.997Z,93.96
2022-08-17T00:43:46.972Z,94.37
2022-08-17T00:44:46.965Z,94.37
2022-08-17T00:45:46.959Z,94.47
2022-08-17T00:46:46.978Z,94.17
2022-08-17T00:47:46.929Z,94.02
2022-08-17T00:48:46.926Z,93.21
2022-08-17T00:49:46.921Z,94.53
2022-08-17T00:50:46.909Z,93.32
2022-08-17T00:51:46.941Z,93.32
2022-08-17T00:52:46.904Z,93.56
2022-08-17T00:53:46.880Z,94.07
2022-08-17T00:54:46.872Z,93.56
2022-08-17T00:55:46.869Z,93.96
2022-08-17T00:56:46.893Z,94.17
2022-08-17T00:57:46.840Z,94.82
2022-08-17T00:58:46.839Z,94.21
2022-08-17T00:59:46.838Z,94.62
2022-08-17T01:00:47.870Z,94.72
2022-08-17T01:01:46.849Z,94.31
2022-08-17T01:02:46.818Z,94.51
2022-08-17T01:03:46.793Z,94.31
2022-08-17T01:04:46.793Z,94.51
2022-08-17T01:05:46.782Z,94.42
2022-08-17T01:06:46.841Z,94.42
2022-08-17T01:07:46.765Z,94.11
2022-08-17T01:08:46.760Z,93.40
2022-08-17T01:09:46.750Z,93.60
2022-08-17T01:10:58.691Z,93.81
2022-08-17T01:11:47.753Z,93.91
2022-08-17T01:12:46.762Z,94.92
2022-08-17T01:13:46.714Z,94.42
2022-08-17T01:14:46.714Z,94.42
2022-08-17T01:15:46.698Z,94.51
2022-08-17T01:16:46.728Z,94.72
2022-08-17T01:17:46.684Z,94.82
2022-08-17T01:18:46.695Z,95.83
2022-08-17T01:19:46.660Z,95.47
2022-08-17T01:20:48.183Z,95.32
2022-08-17T01:21:46.675Z,95.78
2022-08-17T01:22:46.670Z,95.57
2022-08-17T01:23:46.638Z,95.87
2022-08-17T01:24:46.624Z,95.67
2022-08-17T01:25:46.613Z,95.47
2022-08-17T01:26:46.641Z,95.78
2022-08-17T01:27:46.608Z,95.78
2022-08-17T01:28:55.084Z,95.98
2022-08-17T01:29:47.585Z,95.98
2022-08-17T01:30:56.994Z,95.87
2022-08-17T01:31:47.593Z,95.37
2022-08-17T01:32:46.609Z,95.27
2022-08-17T01:33:46.554Z,95.57
2022-08-17T01:34:50.655Z,95.37
2022-08-17T01:35:46.534Z,95.47
2022-08-17T01:36:46.558Z,95.57
2022-08-17T01:37:46.523Z,96.02
2022-08-17T01:38:46.510Z,95.87
2022-08-17T01:39:46.523Z,95.47
2022-08-17T01:40:46.489Z,95.82
2022-08-17T01:41:46.514Z,96.12
2022-08-17T01:42:46.563Z,95.78
2022-08-17T01:43:47.474Z,95.42
2022-08-17T01:44:46.464Z,95.67
2022-08-17T01:45:46.450Z,94.76
2022-08-17T01:46:46.475Z,95.47
2022-08-17T01:47:46.442Z,95.87
2022-08-17T01:48:46.425Z,95.57
2022-08-17T01:49:46.427Z,95.57
2022-08-17T01:50:46.403Z,95.57
2022-08-17T01:51:46.403Z,95.37
2022-08-17T01:52:46.480Z,95.37
2022-08-17T01:53:46.386Z,95.37
2022-08-17T01:54:46.375Z,95.67
2022-08-17T01:55:46.372Z,95.57
2022-08-17T01:56:47.206Z,96.02
2022-08-17T01:57:46.386Z,95.78
2022-08-17T01:58:46.345Z,95.47
2022-08-17T01:59:46.341Z,95.82
2022-08-17T02:00:47.815Z,95.72
2022-08-17T02:01:47.370Z,95.78
2022-08-17T02:02:46.332Z,95.47
2022-08-17T02:03:53.492Z,96.02
2022-08-17T02:04:47.289Z,95.51
2022-08-17T02:05:46.285Z,95.31
2022-08-17T02:06:53.112Z,95.42
2022-08-17T02:08:00.437Z,95.42
2022-08-17T02:09:02.448Z,95.92
2022-08-17T02:09:47.252Z,95.92
2022-08-17T02:10:47.237Z,95.51
2022-08-17T02:11:46.380Z,95.31
2022-08-17T02:12:46.255Z,95.21
2022-08-17T02:13:46.209Z,95.72
2022-08-17T02:14:46.208Z,95.92
2022-08-17T02:15:46.198Z,95.62
2022-08-17T02:16:46.190Z,95.72
2022-08-17T02:17:46.216Z,95.57
2022-08-17T02:18:46.170Z,95.92
2022-08-17T02:19:46.176Z,95.72
2022-08-17T02:20:46.151Z,95.72
2022-08-17T02:21:46.150Z,95.92
2022-08-17T02:22:46.260Z,95.51
2022-08-17T02:23:46.133Z,95.51
2022-08-17T02:24:59.964Z,96.22
2022-08-17T02:25:47.120Z,95.51
2022-08-17T02:26:46.100Z,96.07
2022-08-17T02:27:46.122Z,95.66
2022-08-17T02:28:46.094Z,96.27
2022-08-17T02:29:46.081Z,96.22
2022-08-17T02:31:02.155Z,96.27
2022-08-17T02:31:47.059Z,96.02
2022-08-17T02:32:46.131Z,96.12
2022-08-17T02:33:46.045Z,96.27
2022-08-17T02:34:47.024Z,96.07
2022-08-17T02:35:47.032Z,96.27
2022-08-17T02:36:46.021Z,96.57
2022-08-17T02:37:46.063Z,96.37
2022-08-17T02:38:47.000Z,97.08
2022-08-17T02:39:46.047Z,97.28
2022-08-17T02:40:45.998Z,97.58
2022-08-17T02:41:45.991Z,97.38
2022-08-17T02:42:46.052Z,97.18
2022-08-17T02:43:45.959Z,97.08
2022-08-17T02:44:45.951Z,97.28
2022-08-17T02:45:45.941Z,97.33
2022-08-17T02:46:45.938Z,97.53
2022-08-17T02:47:45.960Z,98.03
2022-08-17T02:48:45.912Z,98.03
2022-08-17T02:49:54.461Z,97.53
2022-08-17T02:50:47.907Z,98.14
2022-08-17T02:51:45.890Z,98.14
2022-08-17T02:52:57.259Z,98.03
2022-08-17T02:53:46.891Z,97.83
2022-08-17T02:54:45.866Z,97.98
2022-08-17T02:55:45.857Z,98.18
2022-08-17T02:56:45.855Z,98.79
2022-08-17T02:57:45.875Z,98.59
2022-08-17T02:58:45.867Z,98.28
2022-08-17T02:59:49.080Z,98.49
2022-08-17T03:00:46.821Z,98.28
2022-08-17T03:01:45.837Z,98.39
2022-08-17T03:02:45.969Z,98.18
2022-08-17T03:03:45.811Z,98.79
2022-08-17T03:04:45.807Z,98.59
2022-08-17T03:05:45.777Z,98.69
2022-08-17T03:06:45.768Z,98.49
2022-08-17T03:07:45.790Z,98.28
2022-08-17T03:08:45.757Z,98.79
2022-08-17T03:09:45.750Z,98.69
2022-08-17T03:10:45.745Z,98.28
2022-08-17T03:11:45.751Z,98.28
2022-08-17T03:12:45.724Z,98.08
2022-08-17T03:13:45.746Z,98.28
2022-08-17T03:14:45.706Z,98.39
2022-08-17T03:15:45.697Z,98.28
2022-08-17T03:16:45.690Z,98.99
2022-08-17T03:17:45.684Z,99.80
2022-08-17T03:18:45.703Z,99.60
2022-08-17T03:19:45.670Z,99.60
2022-08-17T03:20:45.660Z,99.50
2022-08-17T03:21:45.648Z,99.60
2022-08-17T03:22:48.074Z,99.19
2022-08-17T03:23:46.630Z,99.05
2022-08-17T03:24:46.626Z,98.39
2022-08-17T03:25:45.613Z,98.18
2022-08-17T03:26:45.613Z,98.59
2022-08-17T03:27:48.226Z,98.90
2022-08-17T03:28:46.603Z,99.19
2022-08-17T03:29:45.581Z,98.90
2022-08-17T03:30:45.579Z,98.84
2022-08-17T03:31:45.573Z,99.55
2022-08-17T03:32:45.595Z,98.94
2022-08-17T03:33:45.554Z,99.10
2022-08-17T03:34:45.542Z,99.19
2022-08-17T03:35:45.532Z,98.90
2022-08-17T03:36:45.525Z,98.84
2022-08-17T03:37:45.553Z,98.94
2022-08-17T03:38:45.575Z,98.94
2022-08-17T03:39:45.617Z,98.94
2022-08-17T03:40:57.256Z,99.75
2022-08-17T03:41:46.489Z,99.55
2022-08-17T03:42:45.562Z,99.55
2022-08-17T03:43:45.494Z,99.55
2022-08-17T03:44:45.469Z,99.75
2022-08-17T03:45:45.461Z,99.75
2022-08-17T03:46:45.441Z,99.70
2022-08-17T03:47:45.468Z,99.24
2022-08-17T03:48:45.434Z,99.10
2022-08-17T03:49:45.410Z,98.94
2022-08-17T03:50:45.413Z,98.84
2022-08-17T03:51:45.397Z,99.04
2022-08-17T03:52:45.438Z,99.04
2022-08-17T03:53:46.381Z,98.94
2022-08-17T03:54:45.383Z,99.14
2022-08-17T03:55:45.371Z,98.94
2022-08-17T03:56:45.358Z,99.55
2022-08-17T03:57:46.395Z,99.75
2022-08-17T03:58:45.351Z,99.65
2022-08-17T03:59:45.406Z,99.65
2022-08-17T04:00:45.337Z,99.55
2022-08-17T04:01:45.381Z,99.65
2022-08-17T04:02:45.340Z,99.85
2022-08-17T04:03:45.297Z,99.85
2022-08-17T04:04:45.292Z,99.85
2022-08-17T04:05:45.290Z,99.75
2022-08-17T04:06:45.271Z,99.75
2022-08-17T04:07:45.295Z,99.75
2022-08-17T04:08:45.261Z,99.95
2022-08-17T04:09:45.260Z,99.75
2022-08-17T04:10:45.511Z,99.14
2022-08-17T04:11:45.233Z,99.24
2022-08-17T04:12:45.252Z,99.24
2022-08-17T04:13:45.259Z,99.24
2022-08-17T04:14:52.827Z,99.75
2022-08-17T04:15:46.200Z,99.75
2022-08-17T04:16:45.208Z,98.84
2022-08-17T04:17:45.210Z,98.94
2022-08-17T04:18:45.175Z,98.84
2022-08-17T04:19:45.172Z,99.10
2022-08-17T04:20:45.169Z,98.63
2022-08-17T04:21:45.154Z,99.14
2022-08-17T04:22:45.268Z,98.43
2022-08-17T04:23:45.134Z,98.54
2022-08-17T04:24:45.128Z,98.54
2022-08-17T04:25:45.115Z,98.84
2022-08-17T04:26:52.877Z,98.84
2022-08-17T04:27:46.128Z,98.94
2022-08-17T04:28:45.092Z,98.79
2022-08-17T04:29:55.144Z,99.30
2022-08-17T04:30:46.069Z,98.94
2022-08-17T04:31:45.071Z,98.99
2022-08-17T04:33:09.820Z,98.39
2022-08-17T04:33:46.047Z,98.14
2022-08-17T04:34:45.038Z,98.03
2022-08-17T04:35:45.032Z,98.54
2022-08-17T04:36:50.203Z,98.24
2022-08-17T04:37:46.038Z,97.98
2022-08-17T04:38:45.022Z,97.73
2022-08-17T04:39:45.101Z,97.99
2022-08-17T04:40:44.985Z,97.18
2022-08-17T04:41:44.983Z,96.73
2022-08-17T04:42:45.001Z,96.73
2022-08-17T04:43:44.973Z,96.22
2022-08-17T04:44:44.971Z,95.27
2022-08-17T04:45:55.356Z,95.37
2022-08-17T04:46:45.937Z,96.08
2022-08-17T04:47:44.969Z,95.92
2022-08-17T04:48:44.915Z,95.78
2022-08-17T04:49:44.914Z,95.57
2022-08-17T04:50:44.907Z,94.66
2022-08-17T04:51:51.622Z,94.26
2022-08-17T04:52:45.925Z,94.66
2022-08-17T04:53:44.880Z,94.66
2022-08-17T04:54:44.869Z,93.95
2022-08-17T04:55:44.876Z,94.46
2022-08-17T04:56:44.864Z,93.71
2022-08-17T04:57:45.229Z,93.71
2022-08-17T04:58:45.883Z,93.76
2022-08-17T04:59:44.849Z,92.25
2022-08-17T05:00:44.818Z,92.21
2022-08-17T05:01:44.855Z,91.19
2022-08-17T05:02:50.109Z,91.01
2022-08-17T05:03:45.817Z,90.36
2022-08-17T05:04:44.800Z,89.21
2022-08-17T05:05:44.783Z,88.36
2022-08-17T05:06:44.775Z,88.26
2022-08-17T05:07:44.765Z,87.85
2022-08-17T05:08:44.787Z,87.62
2022-08-17T05:09:44.748Z,87.17
2022-08-17T05:10:45.427Z,86.22
2022-08-17T05:11:44.927Z,85.92
2022-08-17T05:12:44.714Z,85.88
2022-08-17T05:13:44.739Z,84.63
2022-08-17T05:14:44.700Z,84.13
2022-08-17T05:15:45.045Z,83.83
2022-08-17T05:16:44.685Z,83.43
2022-08-17T05:17:44.677Z,83.83
2022-08-17T05:18:44.756Z,84.03
2022-08-17T05:19:47.658Z,84.19
2022-08-17T05:20:45.650Z,83.79
2022-08-17T05:21:44.648Z,83.23
2022-08-17T05:22:44.641Z,83.59
2022-08-17T05:23:44.658Z,84.19
2022-08-17T05:24:53.597Z,83.79
2022-08-17T05:25:45.676Z,82.48
2022-08-17T05:26:44.600Z,82.81
2022-08-17T05:27:44.605Z,82.17
2022-08-17T05:28:44.611Z,81.36
2022-08-17T05:29:44.574Z,80.82
2022-08-17T05:30:44.563Z,80.68
2022-08-17T05:31:44.557Z,80.35
2022-08-17T05:32:44.589Z,79.98
2022-08-17T05:33:44.614Z,79.41
2022-08-17T05:34:45.539Z,79.30
2022-08-17T05:35:44.527Z,78.41
2022-08-17T05:36:44.643Z,77.86
2022-08-17T05:37:45.549Z,78.30
2022-08-17T05:38:44.505Z,78.41
2022-08-17T05:39:44.539Z,78.10
2022-08-17T05:40:44.501Z,78.20
2022-08-17T05:41:44.471Z,78.70
2022-08-17T05:42:44.496Z,78.17
2022-08-17T05:43:44.461Z,75.99
2022-08-17T05:44:44.449Z,75.79
2022-08-17T05:45:56.155Z,75.89
2022-08-17T05:46:45.438Z,74.96
2022-08-17T05:47:44.435Z,73.79
2022-08-17T05:48:44.451Z,71.86
2022-08-17T05:49:44.410Z,72.55
2022-08-17T05:50:44.408Z,72.22
2022-08-17T05:51:44.399Z,70.99
2022-08-17T05:52:44.399Z,71.09
2022-08-17T05:53:44.409Z,70.95
2022-08-17T05:54:44.380Z,70.65
2022-08-17T05:55:44.365Z,69.79
2022-08-17T05:56:44.378Z,68.90
2022-08-17T05:57:53.244Z,70.29
2022-08-17T05:58:45.372Z,69.36
2022-08-17T05:59:44.337Z,68.10
2022-08-17T06:00:44.403Z,66.84
2022-08-17T06:01:44.321Z,69.06
2022-08-17T06:02:48.649Z,68.66
2022-08-17T06:03:45.335Z,68.46
2022-08-17T06:04:44.298Z,68.80
2022-08-17T06:05:44.296Z,66.78
2022-08-17T06:06:44.271Z,67.30
2022-08-17T06:07:44.266Z,66.71
2022-08-17T06:08:44.291Z,67.18
2022-08-17T06:09:44.252Z,67.70
2022-08-17T06:10:44.243Z,68.16
2022-08-17T06:11:44.237Z,66.44
2022-08-17T06:12:44.236Z,66.25
2022-08-17T06:13:44.249Z,66.48
2022-08-17T06:14:44.216Z,67.40
2022-08-17T06:15:44.198Z,66.61
2022-08-17T06:16:44.193Z,66.48
2022-08-17T06:17:44.189Z,65.95
2022-08-17T06:18:44.200Z,65.85
2022-08-17T06:19:44.178Z,65.42
2022-08-17T06:20:44.161Z,66.48
2022-08-17T06:21:44.172Z,66.78
2022-08-17T06:22:44.149Z,66.88
2022-08-17T06:23:44.165Z,66.85
2022-08-17T06:24:44.134Z,65.95
2022-08-17T06:25:44.125Z,66.64
2022-08-17T06:26:44.117Z,66.25
2022-08-17T06:27:44.104Z,64.47
2022-08-17T06:28:44.129Z,64.07
2022-08-17T06:29:44.095Z,63.77
2022-08-17T06:30:57.435Z,64.73
2022-08-17T06:31:45.074Z,63.31
2022-08-17T06:32:44.063Z,62.66
2022-08-17T06:33:44.085Z,62.79
2022-08-17T06:34:44.057Z,62.56
2022-08-17T06:35:44.061Z,62.36
2022-08-17T06:36:44.033Z,61.64
2022-08-17T06:37:44.025Z,60.75
2022-08-17T06:38:44.058Z,61.31
2022-08-17T06:39:44.070Z,60.89
2022-08-17T06:40:44.011Z,60.27
2022-08-17T06:41:44.010Z,60.99
2022-08-17T06:43:05.553Z,61.21
2022-08-17T06:43:47.952Z,61.31
2022-08-17T06:44:51.120Z,62.23
2022-08-17T06:45:44.967Z,63.02
2022-08-17T06:46:43.986Z,62.13
2022-08-17T06:47:43.949Z,63.45
2022-08-17T06:48:43.982Z,62.73
2022-08-17T06:49:43.931Z,61.38
2022-08-17T06:50:43.924Z,60.76
2022-08-17T06:51:43.916Z,60.11
2022-08-17T06:52:47.177Z,59.12
2022-08-17T06:53:43.934Z,58.89
2022-08-17T06:54:43.901Z,58.40
2022-08-17T06:55:43.874Z,58.47
2022-08-17T06:56:53.169Z,59.94
2022-08-17T06:57:44.888Z,58.67
2022-08-17T06:58:43.901Z,57.31
2022-08-17T06:59:54.977Z,55.68
2022-08-17T07:00:44.913Z,57.21
2022-08-17T07:01:43.925Z,56.00
2022-08-17T07:02:52.075Z,56.94
2022-08-17T07:03:44.848Z,56.46
2022-08-17T07:04:43.877Z,55.55
2022-08-17T07:05:43.803Z,53.70
2022-08-17T07:06:43.809Z,53.60
2022-08-17T07:07:43.789Z,55.52
2022-08-17T07:08:43.817Z,56.52
2022-08-17T07:09:43.779Z,58.02
2022-08-17T07:10:43.775Z,58.47
2022-08-17T07:11:43.769Z,59.00
2022-08-17T07:12:43.766Z,59.03
2022-08-17T07:13:43.772Z,58.91
2022-08-17T07:14:44.749Z,57.28
2022-08-17T07:15:43.734Z,56.20
2022-08-17T07:16:44.724Z,57.88
2022-08-17T07:17:47.230Z,57.86
2022-08-17T07:18:44.766Z,57.36
2022-08-17T07:19:43.715Z,57.95
2022-08-17T07:20:43.706Z,57.37
2022-08-17T07:21:43.673Z,55.55
2022-08-17T07:22:57.516Z,55.52
2022-08-17T07:23:44.664Z,53.87
2022-08-17T07:24:43.691Z,53.26
2022-08-17T07:25:43.661Z,51.81
2022-08-17T07:26:43.653Z,51.20
2022-08-17T07:27:43.677Z,50.17
2022-08-17T07:28:43.636Z,51.20
2022-08-17T07:29:43.648Z,51.34
2022-08-17T07:30:47.528Z,54.27
2022-08-17T07:31:43.615Z,56.56
2022-08-17T07:32:43.595Z,55.85
2022-08-17T07:33:43.597Z,55.58
2022-08-17T07:34:43.615Z,55.10
2022-08-17T07:35:44.577Z,54.68
2022-08-17T07:36:43.567Z,53.70
2022-08-17T07:37:43.600Z,55.58
2022-08-17T07:38:43.552Z,56.93
2022-08-17T07:39:59.705Z,53.44
2022-08-17T07:40:44.622Z,55.16
2022-08-17T07:41:53.168Z,55.82
2022-08-17T07:42:46.746Z,53.70
2022-08-17T07:43:44.525Z,53.21
2022-08-17T07:44:43.545Z,55.08
2022-08-17T07:45:43.502Z,55.48
2022-08-17T07:46:43.508Z,54.76
2022-08-17T07:47:43.515Z,53.73
2022-08-17T07:48:43.488Z,53.83
2022-08-17T07:49:43.507Z,53.73
2022-08-17T07:50:43.480Z,55.16
2022-08-17T07:51:44.468Z,55.77
2022-08-17T07:52:51.801Z,53.90
2022-08-17T07:53:44.451Z,53.95
2022-08-17T07:54:43.474Z,53.02
2022-08-17T07:55:43.429Z,52.15
2022-08-17T07:56:43.433Z,51.49
2022-08-17T07:57:43.451Z,50.37
2022-08-17T07:58:43.416Z,50.05
2022-08-17T07:59:43.491Z,49.33
2022-08-17T08:00:43.406Z,50.49
2022-08-17T08:01:43.421Z,50.81
2022-08-17T08:02:43.396Z,50.81
2022-08-17T08:03:43.374Z,51.98
2022-08-17T08:04:59.754Z,49.55
2022-08-17T08:05:50.722Z,48.83
2022-08-17T08:06:44.391Z,48.54
2022-08-17T08:07:43.434Z,47.92
2022-08-17T08:08:43.361Z,47.46
2022-08-17T08:09:43.363Z,47.56
2022-08-17T08:10:45.432Z,49.55
2022-08-17T08:11:44.400Z,49.43
2022-08-17T08:12:44.309Z,49.51
2022-08-17T08:13:43.304Z,49.53
2022-08-17T08:14:43.333Z,49.92
2022-08-17T08:15:45.141Z,48.97
2022-08-17T08:16:44.281Z,47.38
2022-08-17T08:17:43.351Z,48.41
2022-08-17T08:18:55.283Z,49.48
2022-08-17T08:19:44.291Z,48.41
2022-08-17T08:20:53.420Z,49.43
2022-08-17T08:21:44.250Z,46.97
2022-08-17T08:22:43.234Z,47.14
2022-08-17T08:23:43.274Z,47.46
2022-08-17T08:24:43.283Z,48.16
2022-08-17T08:25:43.260Z,48.97
2022-08-17T08:26:43.224Z,47.46
2022-08-17T08:27:43.248Z,47.97
2022-08-17T08:28:43.227Z,47.36
2022-08-17T08:29:43.211Z,47.56
2022-08-17T08:30:43.214Z,47.31
2022-08-17T08:31:43.175Z,47.00
2022-08-17T08:32:43.196Z,46.31
2022-08-17T08:33:43.155Z,46.80
2022-08-17T08:34:58.986Z,46.59
2022-08-17T08:35:44.178Z,45.34
2022-08-17T08:37:14.670Z,47.71
2022-08-17T08:37:44.154Z,47.53
2022-08-17T08:38:43.140Z,47.09
2022-08-17T08:39:43.169Z,45.61
2022-08-17T08:40:43.149Z,46.00
2022-08-17T08:41:43.299Z,45.37
2022-08-17T08:42:43.111Z,45.59
2022-08-17T08:43:43.109Z,47.19
2022-08-17T08:44:59.739Z,45.59
2022-08-17T08:45:44.111Z,44.84
2022-08-17T08:46:43.082Z,43.75
2022-08-17T08:47:43.072Z,44.00
2022-08-17T08:48:55.933Z,43.22
2022-08-17T08:50:03.238Z,43.46
2022-08-17T08:50:45.076Z,44.35
2022-08-17T08:51:43.052Z,44.45
2022-08-17T08:52:43.038Z,44.76
2022-08-17T08:53:43.048Z,43.77
2022-08-17T08:54:43.031Z,44.06
2022-08-17T08:55:43.050Z,45.28
2022-08-17T08:56:58.964Z,44.57
2022-08-17T08:57:45.049Z,43.99
2022-08-17T08:58:43.067Z,45.15
2022-08-17T08:59:44.537Z,43.77
2022-08-17T09:00:43.015Z,43.48
2022-08-17T09:01:43.029Z,42.95
2022-08-17T09:02:42.972Z,43.22
2022-08-17T09:03:52.837Z,42.40
2022-08-17T09:05:10.721Z,41.39
2022-08-17T09:05:44.973Z,40.84
2022-08-17T09:06:42.935Z,40.69
2022-08-17T09:07:43.004Z,41.53
2022-08-17T09:08:42.924Z,42.15
2022-08-17T09:09:42.926Z,42.85
2022-08-17T09:10:42.950Z,43.38
2022-08-17T09:12:02.109Z,43.48
2022-08-17T09:12:43.902Z,44.20
2022-08-17T09:13:42.892Z,45.28
2022-08-17T09:14:46.484Z,44.18
2022-08-17T09:15:42.920Z,43.30
2022-08-17T09:16:42.879Z,43.96
2022-08-17T09:17:42.870Z,44.30
2022-08-17T09:18:59.895Z,45.10
2022-08-17T09:19:43.857Z,45.61
2022-08-17T09:20:46.628Z,45.34
2022-08-17T09:21:48.523Z,45.15
2022-08-17T09:22:42.833Z,44.83
2022-08-17T09:23:42.834Z,45.07
2022-08-17T09:24:42.819Z,45.46
2022-08-17T09:25:42.843Z,45.17
2022-08-17T09:26:42.804Z,45.68
2022-08-17T09:27:42.895Z,45.09
2022-08-17T09:28:42.812Z,43.61
2022-08-17T09:29:42.815Z,43.05
2022-08-17T09:30:42.791Z,41.20
2022-08-17T09:31:49.150Z,40.60
2022-08-17T09:32:43.782Z,39.88
2022-08-17T09:33:42.762Z,41.10
2022-08-17T09:34:43.641Z,38.81
2022-08-17T09:35:42.798Z,38.12
2022-08-17T09:36:42.745Z,38.58
2022-08-17T09:37:42.756Z,37.81
2022-08-17T09:38:42.730Z,37.88
2022-08-17T09:39:42.836Z,37.19
2022-08-17T09:40:42.752Z,37.32
2022-08-17T09:41:48.512Z,37.56
2022-08-17T09:42:43.702Z,36.36
2022-08-17T09:43:42.715Z,35.75
2022-08-17T09:44:42.699Z,36.71
2022-08-17T09:45:42.710Z,36.15
2022-08-17T09:46:42.679Z,36.81
2022-08-17T09:47:42.784Z,36.43
2022-08-17T09:48:42.700Z,36.75
2022-08-17T09:49:42.669Z,36.59
2022-08-17T09:51:03.914Z,38.33
2022-08-17T09:51:43.635Z,38.89
2022-08-17T09:52:43.664Z,39.67
2022-08-17T09:53:44.781Z,39.08
2022-08-17T09:54:42.620Z,38.79
2022-08-17T09:55:42.649Z,38.71
2022-08-17T09:56:46.341Z,40.01
2022-08-17T09:57:44.647Z,40.23
2022-08-17T09:58:42.598Z,40.72
2022-08-17T09:59:42.607Z,41.10
2022-08-17T10:00:42.629Z,41.61
2022-08-17T10:01:42.664Z,42.60
2022-08-17T10:02:42.585Z,41.71
2022-08-17T10:03:42.573Z,41.44
2022-08-17T10:04:42.585Z,42.29
2022-08-17T10:05:42.694Z,41.71
2022-08-17T10:06:42.554Z,40.72
2022-08-17T10:07:42.556Z,40.54
2022-08-17T10:08:42.540Z,41.34
2022-08-17T10:09:42.536Z,41.80
2022-08-17T10:10:42.563Z,40.31
2022-08-17T10:11:43.542Z,41.39
2022-08-17T10:12:45.174Z,41.71
2022-08-17T10:13:53.210Z,41.83
2022-08-17T10:14:43.814Z,41.90
2022-08-17T10:15:42.794Z,41.22
2022-08-17T10:16:43.495Z,41.14
2022-08-17T10:17:42.479Z,41.19
2022-08-17T10:18:42.472Z,42.32
2022-08-17T10:19:44.138Z,41.85
2022-08-17T10:20:42.497Z,41.93
2022-08-17T10:21:42.466Z,42.79
2022-08-17T10:22:42.484Z,42.40
2022-08-17T10:23:42.451Z,41.89
2022-08-17T10:25:21.856Z,41.67
2022-08-17T10:25:54.724Z,41.48
2022-08-17T10:26:56.651Z,41.40
2022-08-17T10:27:43.436Z,41.89
2022-08-17T10:28:43.412Z,41.60
2022-08-17T10:29:49.152Z,42.49
2022-08-17T10:30:43.578Z,42.30
2022-08-17T10:31:42.379Z,43.29
2022-08-17T10:32:42.374Z,41.91
2022-08-17T10:33:42.371Z,42.51
2022-08-17T10:34:42.363Z,42.59
2022-08-17T10:35:42.428Z,42.69
2022-08-17T10:36:42.353Z,41.83
2022-08-17T10:37:42.488Z,42.75
2022-08-17T10:38:42.363Z,43.07
2022-08-17T10:39:52.397Z,43.65
2022-08-17T10:40:43.361Z,43.55
2022-08-17T10:41:42.351Z,43.36
2022-08-17T10:42:42.305Z,43.07
2022-08-17T10:43:42.293Z,43.46
2022-08-17T10:44:43.291Z,43.26
2022-08-17T10:45:42.284Z,43.75
2022-08-17T10:46:42.306Z,43.55
2022-08-17T10:47:54.862Z,43.92
2022-08-17T10:48:44.265Z,43.53
2022-08-17T10:49:42.259Z,42.77
2022-08-17T10:50:42.416Z,43.04
2022-08-17T10:51:42.435Z,43.75
2022-08-17T10:52:42.349Z,44.35
2022-08-17T10:53:42.326Z,44.28
2022-08-17T10:54:42.236Z,44.09
2022-08-17T10:55:42.209Z,44.20
2022-08-17T10:56:42.234Z,44.28
2022-08-17T10:57:42.201Z,44.38
2022-08-17T10:58:42.192Z,44.28
2022-08-17T10:59:42.181Z,44.49
2022-08-17T11:00:42.230Z,44.20
2022-08-17T11:01:42.195Z,44.79
2022-08-17T11:02:42.177Z,44.98
2022-08-17T11:03:42.153Z,45.18
2022-08-17T11:04:42.159Z,45.89
2022-08-17T11:05:44.026Z,45.81
2022-08-17T11:06:43.158Z,45.72
2022-08-17T11:07:42.137Z,45.42
2022-08-17T11:08:42.121Z,45.69
2022-08-17T11:09:42.121Z,45.59
2022-08-17T11:10:42.111Z,45.50
2022-08-17T11:11:42.125Z,45.50
2022-08-17T11:12:42.230Z,45.98
2022-08-17T11:13:42.083Z,45.72
2022-08-17T11:14:42.079Z,45.32
2022-08-17T11:15:42.066Z,45.23
2022-08-17T11:16:42.085Z,45.81
2022-08-17T11:17:42.047Z,45.81
2022-08-17T11:18:42.053Z,45.93
2022-08-17T11:19:42.131Z,45.54
2022-08-17T11:20:42.061Z,46.44
2022-08-17T11:21:42.054Z,46.78
2022-08-17T11:22:42.023Z,47.08
2022-08-17T11:23:42.007Z,46.98
2022-08-17T11:24:43.400Z,47.59
2022-08-17T11:25:42.009Z,47.49
2022-08-17T11:26:42.021Z,47.99
2022-08-17T11:27:41.983Z,47.08
2022-08-17T11:28:41.971Z,48.08
2022-08-17T11:29:41.956Z,47.39
2022-08-17T11:30:44.326Z,46.71
2022-08-17T11:31:41.980Z,48.11
2022-08-17T11:32:47.718Z,48.18
2022-08-17T11:33:42.935Z,48.40
2022-08-17T11:34:41.913Z,48.43
2022-08-17T11:35:42.646Z,48.33
2022-08-17T11:36:41.950Z,48.43
2022-08-17T11:37:41.897Z,48.72
2022-08-17T11:38:41.901Z,49.01
2022-08-17T11:39:41.977Z,49.21
2022-08-17T11:40:41.874Z,48.91
2022-08-17T11:41:41.876Z,49.60
2022-08-17T11:42:41.907Z,49.80
2022-08-17T11:43:42.919Z,49.19
2022-08-17T11:44:42.852Z,49.19
2022-08-17T11:45:41.858Z,48.99
2022-08-17T11:46:41.869Z,48.96
2022-08-17T11:47:42.837Z,48.67
2022-08-17T11:48:41.811Z,48.96
2022-08-17T11:49:41.812Z,48.50
2022-08-17T11:50:41.805Z,49.48
2022-08-17T11:51:41.840Z,49.38
2022-08-17T11:52:41.795Z,49.16
2022-08-17T11:53:41.781Z,48.16
2022-08-17T11:54:41.766Z,47.96
2022-08-17T11:55:44.802Z,47.45
2022-08-17T11:56:42.775Z,46.72
2022-08-17T11:57:41.750Z,46.08
2022-08-17T11:58:41.742Z,45.67
2022-08-17T11:59:41.728Z,45.65
2022-08-17T12:00:41.731Z,43.59
2022-08-17T12:01:41.763Z,41.99
2022-08-17T12:02:46.943Z,42.73
2022-08-17T12:03:53.840Z,43.43
2022-08-17T12:04:42.737Z,42.51
2022-08-17T12:05:41.687Z,42.05
2022-08-17T12:06:41.725Z,44.43
2022-08-17T12:07:41.670Z,43.16
2022-08-17T12:08:41.665Z,43.65
2022-08-17T12:09:41.656Z,42.22
2022-08-17T12:10:41.657Z,42.56
2022-08-17T12:11:58.731Z,43.46
2022-08-17T12:12:42.636Z,43.99
2022-08-17T12:13:41.621Z,45.29
2022-08-17T12:15:08.119Z,44.90
2022-08-17T12:15:43.613Z,44.98
2022-08-17T12:16:41.642Z,45.17
2022-08-17T12:17:43.046Z,45.37
2022-08-17T12:18:42.597Z,44.68
2022-08-17T12:19:41.605Z,45.27
2022-08-17T12:20:41.572Z,45.98
2022-08-17T12:21:41.622Z,45.39
2022-08-17T12:22:41.562Z,45.19
2022-08-17T12:23:41.552Z,45.51
2022-08-17T12:24:41.547Z,45.90
2022-08-17T12:25:41.555Z,45.90
2022-08-17T12:26:41.588Z,46.71
2022-08-17T12:28:05.195Z,45.95
2022-08-17T12:28:42.562Z,47.52
2022-08-17T12:29:41.506Z,47.83
2022-08-17T12:30:41.503Z,48.13
2022-08-17T12:31:41.492Z,47.61
2022-08-17T12:32:41.587Z,47.81
2022-08-17T12:33:41.478Z,49.19
2022-08-17T12:34:41.505Z,48.40
2022-08-17T12:35:41.487Z,48.99
2022-08-17T12:36:41.480Z,48.52
2022-08-17T12:37:41.480Z,48.62
2022-08-17T12:38:41.452Z,49.23
2022-08-17T12:39:41.506Z,49.43
2022-08-17T12:40:41.434Z,49.23
2022-08-17T12:41:41.465Z,49.85
2022-08-17T12:42:41.476Z,49.75
2022-08-17T12:43:41.405Z,49.77
2022-08-17T12:44:50.291Z,50.14
2022-08-17T12:45:42.393Z,50.04
2022-08-17T12:46:41.380Z,50.04
2022-08-17T12:47:41.434Z,49.87
2022-08-17T12:48:59.267Z,49.38
2022-08-17T12:49:42.374Z,49.77
2022-08-17T12:50:41.368Z,49.87
2022-08-17T12:51:41.354Z,50.46
2022-08-17T12:52:41.367Z,50.37